sensor_id;sensor_type;location;lat;lon;timestamp;pressure;altitude;pressure_sealevel;temperature;humidity
72118;BME280;59992;47.490;8.736;2023-02-19T00:01:31;97373.93;;;7.40;78.12
72118;BME280;59992;47.490;8.736;2023-02-19T00:04:00;97372.29;;;7.33;78.83
72118;BME280;59992;47.490;8.736;2023-02-19T00:06:29;97372.36;;;7.26;78.81
72118;BME280;59992;47.490;8.736;2023-02-19T00:08:57;97367.25;;;7.21;80.80
72118;BME280;59992;47.490;8.736;2023-02-19T00:11:27;97366.34;;;7.19;79.55
72118;BME280;59992;47.490;8.736;2023-02-19T00:13:56;97364.33;;;7.13;79.27
72118;BME280;59992;47.490;8.736;2023-02-19T00:16:26;97359.03;;;7.07;79.03
72118;BME280;59992;47.490;8.736;2023-02-19T00:18:55;97362.23;;;7.01;79.61
72118;BME280;59992;47.490;8.736;2023-02-19T00:21:24;97361.11;;;6.93;79.68
72118;BME280;59992;47.490;8.736;2023-02-19T00:23:52;97362.30;;;6.87;79.04
72118;BME280;59992;47.490;8.736;2023-02-19T00:26:20;97362.77;;;6.82;78.94
72118;BME280;59992;47.490;8.736;2023-02-19T00:28:49;97360.08;;;6.77;79.14
72118;BME280;59992;47.490;8.736;2023-02-19T00:31:19;97359.44;;;6.73;79.84
72118;BME280;59992;47.490;8.736;2023-02-19T00:33:49;97355.44;;;6.67;80.37
72118;BME280;59992;47.490;8.736;2023-02-19T00:36:17;97359.21;;;6.62;80.02
72118;BME280;59992;47.490;8.736;2023-02-19T00:38:45;97357.27;;;6.54;80.43
72118;BME280;59992;47.490;8.736;2023-02-19T00:41:14;97353.56;;;6.49;80.30
72118;BME280;59992;47.490;8.736;2023-02-19T00:43:46;97352.79;;;6.47;80.78
72118;BME280;59992;47.490;8.736;2023-02-19T00:46:14;97345.09;;;6.38;82.10
72118;BME280;59992;47.490;8.736;2023-02-19T00:48:42;97345.79;;;6.35;81.85
72118;BME280;59992;47.490;8.736;2023-02-19T00:51:10;97341.73;;;6.33;80.94
72118;BME280;59992;47.490;8.736;2023-02-19T00:53:38;97343.72;;;6.32;81.94
72118;BME280;59992;47.490;8.736;2023-02-19T00:56:06;97348.64;;;6.37;81.82
72118;BME280;59992;47.490;8.736;2023-02-19T00:58:34;97346.80;;;6.38;81.02
72118;BME280;59992;47.490;8.736;2023-02-19T01:01:01;97345.02;;;6.38;81.21
72118;BME280;59992;47.490;8.736;2023-02-19T01:03:29;97346.55;;;6.39;81.82
72118;BME280;59992;47.490;8.736;2023-02-19T01:05:57;97350.18;;;6.38;81.35
72118;BME280;59992;47.490;8.736;2023-02-19T01:08:24;97348.11;;;6.37;81.75
72118;BME280;59992;47.490;8.736;2023-02-19T01:10:52;97347.52;;;6.35;81.25
72118;BME280;59992;47.490;8.736;2023-02-19T01:13:20;97341.92;;;6.32;81.37
72118;BME280;59992;47.490;8.736;2023-02-19T01:15:47;97346.02;;;6.28;81.65
72118;BME280;59992;47.490;8.736;2023-02-19T01:18:15;97344.08;;;6.26;83.34
72118;BME280;59992;47.490;8.736;2023-02-19T01:20:43;97338.68;;;6.29;81.85
72118;BME280;59992;47.490;8.736;2023-02-19T01:23:12;97335.71;;;6.26;81.58
72118;BME280;59992;47.490;8.736;2023-02-19T01:25:40;97340.55;;;6.23;81.11
72118;BME280;59992;47.490;8.736;2023-02-19T01:28:09;97339.65;;;6.20;81.13
72118;BME280;59992;47.490;8.736;2023-02-19T01:30:38;97341.36;;;6.19;80.46
72118;BME280;59992;47.490;8.736;2023-02-19T01:33:06;97342.29;;;6.18;81.05
72118;BME280;59992;47.490;8.736;2023-02-19T01:35:37;97344.47;;;6.14;81.01
72118;BME280;59992;47.490;8.736;2023-02-19T01:38:06;97344.19;;;6.10;81.14
72118;BME280;59992;47.490;8.736;2023-02-19T01:40:34;97341.82;;;6.03;81.70
72118;BME280;59992;47.490;8.736;2023-02-19T01:43:02;97344.11;;;5.97;81.10
72118;BME280;59992;47.490;8.736;2023-02-19T01:45:31;97343.45;;;5.93;80.81
72118;BME280;59992;47.490;8.736;2023-02-19T01:48:11;97342.84;;;5.89;81.46
72118;BME280;59992;47.490;8.736;2023-02-19T01:50:44;97346.40;;;5.85;81.64
72118;BME280;59992;47.490;8.736;2023-02-19T01:53:16;97339.39;;;5.79;82.38
72118;BME280;59992;47.490;8.736;2023-02-19T01:55:48;97335.15;;;5.72;83.59
72118;BME280;59992;47.490;8.736;2023-02-19T01:58:18;97330.88;;;5.69;83.51
72118;BME280;59992;47.490;8.736;2023-02-19T02:00:45;97328.85;;;5.68;82.69
72118;BME280;59992;47.490;8.736;2023-02-19T02:03:13;97324.34;;;5.66;84.21
72118;BME280;59992;47.490;8.736;2023-02-19T02:05:49;97313.91;;;5.68;85.29
72118;BME280;59992;47.490;8.736;2023-02-19T02:08:20;97304.33;;;5.75;83.57
72118;BME280;59992;47.490;8.736;2023-02-19T02:11:07;97294.52;;;5.83;83.42
72118;BME280;59992;47.490;8.736;2023-02-19T02:13:35;97288.66;;;5.90;84.40
72118;BME280;59992;47.490;8.736;2023-02-19T02:16:14;97283.53;;;5.96;83.15
72118;BME280;59992;47.490;8.736;2023-02-19T02:18:52;97284.09;;;6.02;82.19
72118;BME280;59992;47.490;8.736;2023-02-19T02:21:46;97280.66;;;6.06;81.86
72118;BME280;59992;47.490;8.736;2023-02-19T02:24:27;97278.95;;;6.12;83.62
72118;BME280;59992;47.490;8.736;2023-02-19T02:27:23;97279.64;;;6.22;83.16
72118;BME280;59992;47.490;8.736;2023-02-19T02:30:09;97278.85;;;6.28;83.75
72118;BME280;59992;47.490;8.736;2023-02-19T02:32:47;97275.84;;;6.41;82.69
72118;BME280;59992;47.490;8.736;2023-02-19T02:35:24;97271.36;;;6.44;82.88
72118;BME280;59992;47.490;8.736;2023-02-19T02:37:55;97268.50;;;6.46;82.50
72118;BME280;59992;47.490;8.736;2023-02-19T02:40:24;97271.05;;;6.49;82.16
72118;BME280;59992;47.490;8.736;2023-02-19T02:42:55;97271.48;;;6.54;82.05
72118;BME280;59992;47.490;8.736;2023-02-19T02:45:30;97272.23;;;6.58;81.76
72118;BME280;59992;47.490;8.736;2023-02-19T02:48:04;97275.41;;;6.61;81.51
72118;BME280;59992;47.490;8.736;2023-02-19T02:50:38;97278.48;;;6.60;81.51
72118;BME280;59992;47.490;8.736;2023-02-19T02:53:12;97280.02;;;6.59;81.46
72118;BME280;59992;47.490;8.736;2023-02-19T02:56:00;97280.83;;;6.59;81.41
72118;BME280;59992;47.490;8.736;2023-02-19T02:58:31;97275.87;;;6.57;81.34
72118;BME280;59992;47.490;8.736;2023-02-19T03:01:04;97274.47;;;6.56;81.52
72118;BME280;59992;47.490;8.736;2023-02-19T03:03:56;97270.63;;;6.55;81.38
72118;BME280;59992;47.490;8.736;2023-02-19T03:06:30;97273.34;;;6.50;82.75
72118;BME280;59992;47.490;8.736;2023-02-19T03:09:06;97279.84;;;6.60;82.19
72118;BME280;59992;47.490;8.736;2023-02-19T03:11:36;97282.48;;;6.66;82.03
72118;BME280;59992;47.490;8.736;2023-02-19T03:14:28;97276.20;;;6.71;81.59
72118;BME280;59992;47.490;8.736;2023-02-19T03:17:19;97272.46;;;6.75;81.60
72118;BME280;59992;47.490;8.736;2023-02-19T03:20:09;97270.65;;;6.79;81.72
72118;BME280;59992;47.490;8.736;2023-02-19T03:22:41;97270.23;;;6.80;82.29
72118;BME280;59992;47.490;8.736;2023-02-19T03:25:12;97274.23;;;6.79;82.42
72118;BME280;59992;47.490;8.736;2023-02-19T03:28:04;97283.95;;;6.78;82.79
72118;BME280;59992;47.490;8.736;2023-02-19T03:30:35;97288.53;;;6.84;82.44
72118;BME280;59992;47.490;8.736;2023-02-19T03:33:08;97285.23;;;6.95;82.62
72118;BME280;59992;47.490;8.736;2023-02-19T03:35:42;97283.92;;;7.07;82.00
72118;BME280;59992;47.490;8.736;2023-02-19T03:38:15;97279.76;;;7.18;81.51
72118;BME280;59992;47.490;8.736;2023-02-19T03:40:51;97275.36;;;7.31;81.26
72118;BME280;59992;47.490;8.736;2023-02-19T03:43:25;97272.01;;;7.41;80.78
72118;BME280;59992;47.490;8.736;2023-02-19T03:46:05;97274.03;;;7.49;80.64
72118;BME280;59992;47.490;8.736;2023-02-19T03:48:35;97293.16;;;7.57;80.60
72118;BME280;59992;47.490;8.736;2023-02-19T03:51:11;97308.44;;;7.63;80.31
72118;BME280;59992;47.490;8.736;2023-02-19T03:53:50;97319.73;;;7.66;80.17
72118;BME280;59992;47.490;8.736;2023-02-19T03:56:25;97329.19;;;7.71;80.12
72118;BME280;59992;47.490;8.736;2023-02-19T03:58:59;97330.94;;;7.76;80.10
72118;BME280;59992;47.490;8.736;2023-02-19T04:01:31;97320.80;;;7.79;79.87
72118;BME280;59992;47.490;8.736;2023-02-19T04:04:05;97317.53;;;7.76;80.58
72118;BME280;59992;47.490;8.736;2023-02-19T04:06:36;97309.05;;;7.75;80.08
72118;BME280;59992;47.490;8.736;2023-02-19T04:09:08;97302.60;;;7.80;79.77
72118;BME280;59992;47.490;8.736;2023-02-19T04:11:38;97291.52;;;7.81;80.04
72118;BME280;59992;47.490;8.736;2023-02-19T04:14:09;97277.20;;;7.75;80.03
72118;BME280;59992;47.490;8.736;2023-02-19T04:16:41;97265.10;;;7.82;79.87
72118;BME280;59992;47.490;8.736;2023-02-19T04:19:13;97267.27;;;7.73;80.65
72118;BME280;59992;47.490;8.736;2023-02-19T04:21:44;97267.56;;;7.74;80.37
72118;BME280;59992;47.490;8.736;2023-02-19T04:24:15;97262.02;;;7.69;80.33
72118;BME280;59992;47.490;8.736;2023-02-19T04:26:45;97261.23;;;7.74;79.95
72118;BME280;59992;47.490;8.736;2023-02-19T04:29:13;97263.02;;;7.78;79.92
72118;BME280;59992;47.490;8.736;2023-02-19T04:31:41;97269.39;;;7.81;79.61
72118;BME280;59992;47.490;8.736;2023-02-19T04:34:08;97267.50;;;7.84;79.64
72118;BME280;59992;47.490;8.736;2023-02-19T04:36:35;97263.16;;;7.82;79.31
72118;BME280;59992;47.490;8.736;2023-02-19T04:39:03;97254.07;;;7.85;79.13
72118;BME280;59992;47.490;8.736;2023-02-19T04:41:30;97256.56;;;7.81;79.52
72118;BME280;59992;47.490;8.736;2023-02-19T04:43:57;97247.63;;;7.84;79.34
72118;BME280;59992;47.490;8.736;2023-02-19T04:46:24;97240.61;;;7.84;79.22
72118;BME280;59992;47.490;8.736;2023-02-19T04:48:52;97260.80;;;7.86;79.06
72118;BME280;59992;47.490;8.736;2023-02-19T04:51:20;97276.46;;;7.87;79.95
72118;BME280;59992;47.490;8.736;2023-02-19T04:53:47;97273.26;;;7.86;80.91
72118;BME280;59992;47.490;8.736;2023-02-19T04:56:16;97271.05;;;7.88;81.07
72118;BME280;59992;47.490;8.736;2023-02-19T04:58:44;97279.06;;;7.86;81.86
72118;BME280;59992;47.490;8.736;2023-02-19T05:01:12;97277.48;;;7.80;82.13
72118;BME280;59992;47.490;8.736;2023-02-19T05:03:40;97298.44;;;7.84;82.31
72118;BME280;59992;47.490;8.736;2023-02-19T05:06:09;97304.85;;;7.88;81.05
72118;BME280;59992;47.490;8.736;2023-02-19T05:08:37;97304.88;;;7.93;81.21
72118;BME280;59992;47.490;8.736;2023-02-19T05:11:06;97299.69;;;7.96;82.22
72118;BME280;59992;47.490;8.736;2023-02-19T05:13:35;97294.52;;;7.90;84.38
72118;BME280;59992;47.490;8.736;2023-02-19T05:16:04;97300.46;;;7.92;82.74
72118;BME280;59992;47.490;8.736;2023-02-19T05:18:33;97303.98;;;7.94;82.54
72118;BME280;59992;47.490;8.736;2023-02-19T05:21:01;97306.89;;;7.93;82.99
72118;BME280;59992;47.490;8.736;2023-02-19T05:23:28;97314.79;;;7.90;84.76
72118;BME280;59992;47.490;8.736;2023-02-19T05:25:56;97310.92;;;7.86;84.70
72118;BME280;59992;47.490;8.736;2023-02-19T05:28:23;97310.56;;;7.77;86.44
72118;BME280;59992;47.490;8.736;2023-02-19T05:30:55;97298.86;;;7.66;85.42
72118;BME280;59992;47.490;8.736;2023-02-19T05:33:24;97299.70;;;7.73;84.59
72118;BME280;59992;47.490;8.736;2023-02-19T05:35:54;97307.29;;;7.76;84.21
72118;BME280;59992;47.490;8.736;2023-02-19T05:38:23;97299.66;;;7.74;84.09
72118;BME280;59992;47.490;8.736;2023-02-19T05:40:51;97305.39;;;7.80;83.53
72118;BME280;59992;47.490;8.736;2023-02-19T05:43:18;97302.05;;;7.80;84.28
72118;BME280;59992;47.490;8.736;2023-02-19T05:45:45;97299.14;;;7.74;84.42
72118;BME280;59992;47.490;8.736;2023-02-19T05:48:13;97299.29;;;7.70;84.61
72118;BME280;59992;47.490;8.736;2023-02-19T05:50:40;97306.14;;;7.68;84.12
72118;BME280;59992;47.490;8.736;2023-02-19T05:53:08;97313.86;;;7.70;84.08
72118;BME280;59992;47.490;8.736;2023-02-19T05:55:35;97316.30;;;7.69;83.86
72118;BME280;59992;47.490;8.736;2023-02-19T05:58:03;97319.07;;;7.70;83.99
72118;BME280;59992;47.490;8.736;2023-02-19T06:00:32;97314.45;;;7.66;83.90
72118;BME280;59992;47.490;8.736;2023-02-19T06:02:59;97323.48;;;7.68;83.70
72118;BME280;59992;47.490;8.736;2023-02-19T06:05:27;97327.19;;;7.64;84.72
72118;BME280;59992;47.490;8.736;2023-02-19T06:07:54;97335.25;;;7.64;84.17
72118;BME280;59992;47.490;8.736;2023-02-19T06:10:21;97340.98;;;7.59;84.52
72118;BME280;59992;47.490;8.736;2023-02-19T06:12:52;97348.32;;;7.60;84.39
72118;BME280;59992;47.490;8.736;2023-02-19T06:15:20;97355.60;;;7.66;83.57
72118;BME280;59992;47.490;8.736;2023-02-19T06:17:47;97357.02;;;7.69;83.44
72118;BME280;59992;47.490;8.736;2023-02-19T06:20:15;97353.41;;;7.65;83.82
72118;BME280;59992;47.490;8.736;2023-02-19T06:22:43;97357.09;;;7.73;83.01
72118;BME280;59992;47.490;8.736;2023-02-19T06:25:10;97351.31;;;7.68;83.32
72118;BME280;59992;47.490;8.736;2023-02-19T06:27:38;97359.36;;;7.71;83.11
72118;BME280;59992;47.490;8.736;2023-02-19T06:30:09;97360.17;;;7.73;82.90
72118;BME280;59992;47.490;8.736;2023-02-19T06:32:37;97361.70;;;7.73;82.29
72118;BME280;59992;47.490;8.736;2023-02-19T06:35:05;97368.54;;;7.77;82.17
72118;BME280;59992;47.490;8.736;2023-02-19T06:37:33;97378.48;;;7.77;82.08
72118;BME280;59992;47.490;8.736;2023-02-19T06:40:01;97382.58;;;7.78;82.25
72118;BME280;59992;47.490;8.736;2023-02-19T06:42:31;97384.61;;;7.73;81.90
72118;BME280;59992;47.490;8.736;2023-02-19T06:44:58;97385.23;;;7.78;81.49
72118;BME280;59992;47.490;8.736;2023-02-19T06:47:27;97383.80;;;7.84;81.61
72118;BME280;59992;47.490;8.736;2023-02-19T06:49:56;97388.50;;;7.89;81.33
72118;BME280;59992;47.490;8.736;2023-02-19T06:52:25;97396.58;;;7.93;80.99
72118;BME280;59992;47.490;8.736;2023-02-19T06:54:53;97396.63;;;7.94;81.07
72118;BME280;59992;47.490;8.736;2023-02-19T06:57:21;97402.05;;;7.96;80.96
72118;BME280;59992;47.490;8.736;2023-02-19T06:59:48;97404.64;;;7.92;80.77
72118;BME280;59992;47.490;8.736;2023-02-19T07:02:16;97417.35;;;7.98;80.39
72118;BME280;59992;47.490;8.736;2023-02-19T07:04:43;97421.92;;;7.99;80.92
72118;BME280;59992;47.490;8.736;2023-02-19T07:07:10;97425.71;;;8.00;81.36
72118;BME280;59992;47.490;8.736;2023-02-19T07:09:38;97427.89;;;8.00;81.87
72118;BME280;59992;47.490;8.736;2023-02-19T07:12:06;97423.11;;;7.97;81.00
72118;BME280;59992;47.490;8.736;2023-02-19T07:14:33;97433.75;;;8.05;81.25
72118;BME280;59992;47.490;8.736;2023-02-19T07:17:01;97432.64;;;8.05;80.37
72118;BME280;59992;47.490;8.736;2023-02-19T07:19:28;97429.73;;;8.07;81.28
72118;BME280;59992;47.490;8.736;2023-02-19T07:21:56;97438.23;;;8.10;80.77
72118;BME280;59992;47.490;8.736;2023-02-19T07:24:24;97448.19;;;8.12;81.00
72118;BME280;59992;47.490;8.736;2023-02-19T07:26:51;97451.80;;;8.14;80.53
72118;BME280;59992;47.490;8.736;2023-02-19T07:29:19;97459.13;;;8.16;80.04
72118;BME280;59992;47.490;8.736;2023-02-19T07:31:46;97453.15;;;8.17;79.92
72118;BME280;59992;47.490;8.736;2023-02-19T07:34:13;97461.03;;;8.18;80.12
72118;BME280;59992;47.490;8.736;2023-02-19T07:36:41;97470.81;;;8.20;80.05
72118;BME280;59992;47.490;8.736;2023-02-19T07:39:11;97477.81;;;8.23;80.09
72118;BME280;59992;47.490;8.736;2023-02-19T07:41:39;97476.02;;;8.21;79.81
72118;BME280;59992;47.490;8.736;2023-02-19T07:44:06;97491.38;;;8.28;79.12
72118;BME280;59992;47.490;8.736;2023-02-19T07:46:34;97492.64;;;8.30;79.33
72118;BME280;59992;47.490;8.736;2023-02-19T07:49:01;97493.70;;;8.28;79.54
72118;BME280;59992;47.490;8.736;2023-02-19T07:51:29;97488.87;;;8.28;78.90
72118;BME280;59992;47.490;8.736;2023-02-19T07:53:56;97495.53;;;8.35;79.77
72118;BME280;59992;47.490;8.736;2023-02-19T07:56:23;97500.98;;;8.39;79.38
72118;BME280;59992;47.490;8.736;2023-02-19T07:58:51;97505.65;;;8.43;79.79
72118;BME280;59992;47.490;8.736;2023-02-19T08:01:20;97505.11;;;8.45;79.39
72118;BME280;59992;47.490;8.736;2023-02-19T08:04:10;97504.21;;;8.47;78.93
72118;BME280;59992;47.490;8.736;2023-02-19T08:06:40;97510.43;;;8.48;79.16
72118;BME280;59992;47.490;8.736;2023-02-19T08:09:07;97512.95;;;8.52;79.22
72118;BME280;59992;47.490;8.736;2023-02-19T08:11:35;97512.26;;;8.54;78.94
72118;BME280;59992;47.490;8.736;2023-02-19T08:14:27;97515.99;;;8.60;79.25
72118;BME280;59992;47.490;8.736;2023-02-19T08:16:54;97515.09;;;8.64;78.92
72118;BME280;59992;47.490;8.736;2023-02-19T08:19:22;97514.04;;;8.64;78.62
72118;BME280;59992;47.490;8.736;2023-02-19T08:21:50;97520.39;;;8.75;78.36
72118;BME280;59992;47.490;8.736;2023-02-19T08:24:17;97525.66;;;8.79;77.97
72118;BME280;59992;47.490;8.736;2023-02-19T08:26:45;97526.16;;;8.78;77.66
72118;BME280;59992;47.490;8.736;2023-02-19T08:29:12;97530.93;;;8.84;77.83
72118;BME280;59992;47.490;8.736;2023-02-19T08:31:40;97539.73;;;8.88;77.52
72118;BME280;59992;47.490;8.736;2023-02-19T08:34:07;97538.25;;;8.90;77.44
72118;BME280;59992;47.490;8.736;2023-02-19T08:36:35;97544.21;;;8.95;77.64
72118;BME280;59992;47.490;8.736;2023-02-19T08:39:02;97545.48;;;8.99;77.08
72118;BME280;59992;47.490;8.736;2023-02-19T08:41:30;97551.52;;;9.02;77.32
72118;BME280;59992;47.490;8.736;2023-02-19T08:43:58;97553.91;;;9.02;76.65
72118;BME280;59992;47.490;8.736;2023-02-19T08:46:25;97554.62;;;9.03;76.20
72118;BME280;59992;47.490;8.736;2023-02-19T08:48:53;97557.45;;;9.09;77.02
72118;BME280;59992;47.490;8.736;2023-02-19T08:51:21;97559.61;;;9.12;76.87
72118;BME280;59992;47.490;8.736;2023-02-19T08:53:48;97562.39;;;9.14;77.19
72118;BME280;59992;47.490;8.736;2023-02-19T08:56:19;97555.09;;;9.17;77.16
72118;BME280;59992;47.490;8.736;2023-02-19T08:58:46;97560.37;;;9.21;77.09
72118;BME280;59992;47.490;8.736;2023-02-19T09:01:15;97553.39;;;9.18;77.24
72118;BME280;59992;47.490;8.736;2023-02-19T09:03:43;97556.10;;;9.24;76.51
72118;BME280;59992;47.490;8.736;2023-02-19T09:06:14;97546.90;;;9.20;76.30
72118;BME280;59992;47.490;8.736;2023-02-19T09:08:43;97558.15;;;9.27;76.67
72118;BME280;59992;47.490;8.736;2023-02-19T09:11:11;97560.45;;;9.28;76.52
72118;BME280;59992;47.490;8.736;2023-02-19T09:13:39;97558.29;;;9.26;76.25
72118;BME280;59992;47.490;8.736;2023-02-19T09:16:07;97556.75;;;9.25;76.46
72118;BME280;59992;47.490;8.736;2023-02-19T09:18:35;97562.79;;;9.28;76.81
72118;BME280;59992;47.490;8.736;2023-02-19T09:21:06;97562.77;;;9.29;77.56
72118;BME280;59992;47.490;8.736;2023-02-19T09:23:34;97564.11;;;9.31;78.80
72118;BME280;59992;47.490;8.736;2023-02-19T09:26:04;97564.04;;;9.26;79.41
72118;BME280;59992;47.490;8.736;2023-02-19T09:28:36;97562.42;;;9.30;79.80
72118;BME280;59992;47.490;8.736;2023-02-19T09:31:10;97568.73;;;9.31;80.33
72118;BME280;59992;47.490;8.736;2023-02-19T09:33:41;97563.91;;;9.31;80.16
72118;BME280;59992;47.490;8.736;2023-02-19T09:36:10;97571.07;;;9.33;80.10
72118;BME280;59992;47.490;8.736;2023-02-19T09:38:38;97572.46;;;9.34;80.17
72118;BME280;59992;47.490;8.736;2023-02-19T09:41:08;97577.58;;;9.33;81.02
72118;BME280;59992;47.490;8.736;2023-02-19T09:43:36;97581.92;;;9.32;80.95
72118;BME280;59992;47.490;8.736;2023-02-19T09:46:10;97584.73;;;9.30;81.14
72118;BME280;59992;47.490;8.736;2023-02-19T09:48:40;97583.83;;;9.30;81.03
72118;BME280;59992;47.490;8.736;2023-02-19T09:51:09;97589.09;;;9.27;81.28
72118;BME280;59992;47.490;8.736;2023-02-19T09:53:41;97591.00;;;9.23;81.22
72118;BME280;59992;47.490;8.736;2023-02-19T09:56:09;97595.39;;;9.24;81.22
72118;BME280;59992;47.490;8.736;2023-02-19T09:58:42;97594.84;;;9.23;80.51
72118;BME280;59992;47.490;8.736;2023-02-19T10:01:13;97593.52;;;9.20;81.30
72118;BME280;59992;47.490;8.736;2023-02-19T10:03:43;97587.17;;;9.09;81.77
72118;BME280;59992;47.490;8.736;2023-02-19T10:06:17;97591.30;;;9.10;82.34
72118;BME280;59992;47.490;8.736;2023-02-19T10:08:47;97585.59;;;9.09;82.07
72118;BME280;59992;47.490;8.736;2023-02-19T10:11:15;97586.73;;;9.16;83.37
72118;BME280;59992;47.490;8.736;2023-02-19T10:13:46;97582.44;;;9.25;83.13
72118;BME280;59992;47.490;8.736;2023-02-19T10:16:19;97573.60;;;9.36;81.90
72118;BME280;59992;47.490;8.736;2023-02-19T10:18:47;97568.84;;;9.41;82.93
72118;BME280;59992;47.490;8.736;2023-02-19T10:21:18;97566.05;;;9.55;82.74
72118;BME280;59992;47.490;8.736;2023-02-19T10:23:49;97567.73;;;9.69;81.83
72118;BME280;59992;47.490;8.736;2023-02-19T10:26:19;97566.06;;;9.83;81.33
72118;BME280;59992;47.490;8.736;2023-02-19T10:28:48;97568.08;;;9.94;80.50
72118;BME280;59992;47.490;8.736;2023-02-19T10:31:18;97569.32;;;10.04;80.05
72118;BME280;59992;47.490;8.736;2023-02-19T10:33:50;97569.83;;;10.15;79.92
72118;BME280;59992;47.490;8.736;2023-02-19T10:36:24;97564.09;;;10.15;79.81
72118;BME280;59992;47.490;8.736;2023-02-19T10:38:54;97568.11;;;10.20;79.02
72118;BME280;59992;47.490;8.736;2023-02-19T10:41:23;97561.30;;;10.16;78.67
72118;BME280;59992;47.490;8.736;2023-02-19T10:43:58;97573.13;;;10.31;77.91
72118;BME280;59992;47.490;8.736;2023-02-19T10:46:28;97576.33;;;10.45;78.01
72118;BME280;59992;47.490;8.736;2023-02-19T10:48:59;97583.72;;;10.54;77.13
72118;BME280;59992;47.490;8.736;2023-02-19T10:51:33;97585.33;;;10.65;77.22
72118;BME280;59992;47.490;8.736;2023-02-19T10:54:05;97586.27;;;10.76;76.71
72118;BME280;59992;47.490;8.736;2023-02-19T10:56:34;97587.09;;;10.81;76.25
72118;BME280;59992;47.490;8.736;2023-02-19T10:59:22;97586.15;;;10.90;75.79
72118;BME280;59992;47.490;8.736;2023-02-19T11:01:57;97582.77;;;10.87;74.72
72118;BME280;59992;47.490;8.736;2023-02-19T11:04:25;97588.35;;;10.99;74.59
72118;BME280;59992;47.490;8.736;2023-02-19T11:06:54;97587.48;;;11.00;74.56
72118;BME280;59992;47.490;8.736;2023-02-19T11:09:26;97588.82;;;10.88;73.75
72118;BME280;59992;47.490;8.736;2023-02-19T11:11:56;97590.37;;;10.79;74.34
72118;BME280;59992;47.490;8.736;2023-02-19T11:14:25;97594.27;;;10.80;74.77
72118;BME280;59992;47.490;8.736;2023-02-19T11:16:56;97592.56;;;10.87;74.96
72118;BME280;59992;47.490;8.736;2023-02-19T11:19:35;97592.05;;;10.93;74.47
72118;BME280;59992;47.490;8.736;2023-02-19T11:22:26;97584.85;;;10.85;73.50
72118;BME280;59992;47.490;8.736;2023-02-19T11:24:57;97589.52;;;11.01;73.56
72118;BME280;59992;47.490;8.736;2023-02-19T11:27:27;97583.23;;;11.12;72.32
72118;BME280;59992;47.490;8.736;2023-02-19T11:29:55;97581.93;;;11.06;72.28
72118;BME280;59992;47.490;8.736;2023-02-19T11:32:43;97580.50;;;11.28;73.03
72118;BME280;59992;47.490;8.736;2023-02-19T11:35:20;97577.95;;;11.47;72.28
72118;BME280;59992;47.490;8.736;2023-02-19T11:37:58;97576.92;;;11.65;71.34
72118;BME280;59992;47.490;8.736;2023-02-19T11:40:43;97571.50;;;11.69;70.23
72118;BME280;59992;47.490;8.736;2023-02-19T11:43:30;97577.44;;;11.67;68.80
72118;BME280;59992;47.490;8.736;2023-02-19T11:46:04;97573.45;;;11.66;68.81
72118;BME280;59992;47.490;8.736;2023-02-19T11:48:40;97569.11;;;11.54;68.79
72118;BME280;59992;47.490;8.736;2023-02-19T11:51:37;97566.56;;;11.43;68.86
72118;BME280;59992;47.490;8.736;2023-02-19T11:54:19;97567.40;;;11.49;68.82
72118;BME280;59992;47.490;8.736;2023-02-19T11:56:54;97563.89;;;11.48;68.27
72118;BME280;59992;47.490;8.736;2023-02-19T11:59:32;97558.32;;;11.41;68.63
72118;BME280;59992;47.490;8.736;2023-02-19T12:02:25;97554.23;;;11.47;69.25
72118;BME280;59992;47.490;8.736;2023-02-19T12:05:16;97554.89;;;11.52;68.72
72118;BME280;59992;47.490;8.736;2023-02-19T12:08:04;97553.56;;;11.68;68.01
72118;BME280;59992;47.490;8.736;2023-02-19T12:11:02;97550.22;;;11.74;67.43
72118;BME280;59992;47.490;8.736;2023-02-19T12:13:49;97538.66;;;11.79;66.97
72118;BME280;59992;47.490;8.736;2023-02-19T12:16:29;97546.86;;;11.83;66.49
72118;BME280;59992;47.490;8.736;2023-02-19T12:19:33;97539.04;;;11.73;65.92
72118;BME280;59992;47.490;8.736;2023-02-19T12:22:23;97532.63;;;11.60;65.88
72118;BME280;59992;47.490;8.736;2023-02-19T12:25:43;97531.66;;;11.43;66.46
72118;BME280;59992;47.490;8.736;2023-02-19T12:37:34;97519.52;;;11.34;65.93
72118;BME280;59992;47.490;8.736;2023-02-19T12:40:26;97524.27;;;11.30;66.43
72118;BME280;59992;47.490;8.736;2023-02-19T12:43:09;97531.48;;;11.39;65.72
72118;BME280;59992;47.490;8.736;2023-02-19T12:45:43;97536.46;;;11.46;66.34
72118;BME280;59992;47.490;8.736;2023-02-19T12:48:17;97536.27;;;11.51;65.84
72118;BME280;59992;47.490;8.736;2023-02-19T12:50:49;97542.90;;;11.55;65.27
72118;BME280;59992;47.490;8.736;2023-02-19T12:53:31;97546.19;;;11.45;65.21
72118;BME280;59992;47.490;8.736;2023-02-19T12:56:04;97546.31;;;11.40;65.63
72118;BME280;59992;47.490;8.736;2023-02-19T12:58:38;97545.51;;;11.44;65.22
72118;BME280;59992;47.490;8.736;2023-02-19T13:01:09;97546.79;;;11.53;65.18
72118;BME280;59992;47.490;8.736;2023-02-19T13:03:46;97546.45;;;11.51;64.59
72118;BME280;59992;47.490;8.736;2023-02-19T13:06:25;97547.27;;;11.51;64.53
72118;BME280;59992;47.490;8.736;2023-02-19T13:09:01;97555.80;;;11.29;64.26
72118;BME280;59992;47.490;8.736;2023-02-19T13:11:34;97560.85;;;11.19;64.87
72118;BME280;59992;47.490;8.736;2023-02-19T13:14:10;97551.83;;;11.19;64.75
72118;BME280;59992;47.490;8.736;2023-02-19T13:16:43;97563.47;;;11.21;65.10
72118;BME280;59992;47.490;8.736;2023-02-19T13:19:12;97556.58;;;11.27;65.06
72118;BME280;59992;47.490;8.736;2023-02-19T13:21:43;97551.55;;;11.37;64.75
72118;BME280;59992;47.490;8.736;2023-02-19T13:24:34;97558.20;;;11.28;65.11
72118;BME280;59992;47.490;8.736;2023-02-19T13:27:32;97556.10;;;11.38;65.17
72118;BME280;59992;47.490;8.736;2023-02-19T13:30:21;97548.80;;;11.42;65.09
72118;BME280;59992;47.490;8.736;2023-02-19T13:32:58;97556.48;;;11.37;64.46
72118;BME280;59992;47.490;8.736;2023-02-19T13:35:50;97551.09;;;11.29;64.52
72118;BME280;59992;47.490;8.736;2023-02-19T13:38:21;97549.48;;;11.34;64.95
72118;BME280;59992;47.490;8.736;2023-02-19T13:40:54;97546.25;;;11.35;64.47
72118;BME280;59992;47.490;8.736;2023-02-19T13:43:25;97558.08;;;11.31;64.06